»·PEaware :: N3525K KIFP-KLAS

N3525K :: KIFP-KLAS

FLIGHT INFORMATION

Flight Status: Arrived
Operator: Privately registered:
United States
More flights under this callsign
Pilot: Anonymous 31142 (31142)
Aircraft: CESSNA 172 SKYHAWK
(C172)
More flights by this aircraft type
Origin: KIFP Laughlin/Bullhead Intl
United States
Destination: KLAS McCarran Intl
United States
More flights between these airports :: More routes between these airports
Route: +
File this flight plan on PilotEdge
Remarks:
Altitude:
(Current/Filed)
4,500ft
Speed:
(Current/Filed)
120kts
Departed: 23-Aug-20 06:16 PM
Arrived: 23-Aug-20 06:57 PM
Distance/Time
Traveled:
63nm/0:41
Distance/Time
To Go:
Arrived

Flight Plot

Page will automatically refresh every two minutes.


Map Options




Map Legend


Flown Route
Filed Route
Departure Airport
Arrival Airport
Navaid (VOR, NDB)
Fix

Horizontal Profiles

Position Reports

Time Latitude Longitude Heading Altitude Ground
Speed
23-Aug-20 18:00 35.158610 -114.556020 266 705ft 0kts
23-Aug-20 18:01 35.158610 -114.556020 266 705ft 0kts
23-Aug-20 18:02 35.158610 -114.556020 266 705ft 0kts
23-Aug-20 18:03 35.158610 -114.556020 266 705ft 0kts
23-Aug-20 18:04 35.158610 -114.556020 266 705ft 0kts
23-Aug-20 18:05 35.158610 -114.556020 266 705ft 0kts
23-Aug-20 18:06 35.158610 -114.556020 266 705ft 0kts
23-Aug-20 18:07 35.158610 -114.556020 266 705ft 0kts
23-Aug-20 18:08 35.158609 -114.556030 265 705ft 0kts
23-Aug-20 18:09 35.159507 -114.557820 266 705ft 13kts
23-Aug-20 18:10 35.163392 -114.558628 355 705ft 21kts
23-Aug-20 18:11 35.166281 -114.559168 248 705ft 0kts
23-Aug-20 18:12 35.166272 -114.559191 240 705ft 0kts
23-Aug-20 18:13 35.166272 -114.559191 240 705ft 0kts
23-Aug-20 18:14 35.166272 -114.559191 240 705ft 0kts
23-Aug-20 18:15 35.160039 -114.559829 178 807ft 73kts
23-Aug-20 18:16 35.142540 -114.564992 273 1710ft 75kts
23-Aug-20 18:17 35.160174 -114.578909 337 2568ft 80kts
23-Aug-20 18:18 35.180514 -114.589642 334 3396ft 82kts
23-Aug-20 18:19 35.200363 -114.601876 329 4203ft 80kts
23-Aug-20 18:20 35.220141 -114.613124 337 4796ft 95kts
23-Aug-20 18:21 35.250422 -114.626962 340 4823ft 131kts
23-Aug-20 18:22 35.284703 -114.642988 334 4852ft 132kts
23-Aug-20 18:23 35.319930 -114.655385 343 4832ft 130kts
23-Aug-20 18:24 35.354388 -114.666065 6 4740ft 129kts
23-Aug-20 18:25 35.385864 -114.681761 312 4549ft 138kts
23-Aug-20 18:26 35.409060 -114.711560 321 4868ft 125kts
23-Aug-20 18:27 35.439621 -114.734421 330 4794ft 129kts
23-Aug-20 18:28 35.471395 -114.754400 335 4787ft 128kts
23-Aug-20 18:29 35.501330 -114.771261 329 5335ft 90kts
23-Aug-20 18:30 35.523383 -114.785127 332 6015ft 87kts
23-Aug-20 18:31 35.544533 -114.798894 328 6681ft 83kts
23-Aug-20 18:32 35.569081 -114.814759 333 6878ft 119kts
23-Aug-20 18:33 35.600485 -114.835046 332 6769ft 131kts
23-Aug-20 18:34 35.633121 -114.854773 334 6715ft 131kts
23-Aug-20 18:35 35.664988 -114.874355 330 6775ft 127kts
23-Aug-20 18:36 35.696146 -114.893994 334 6722ft 123kts
23-Aug-20 18:37 35.726348 -114.910998 335 6731ft 127kts
23-Aug-20 18:38 35.759148 -114.928349 334 6515ft 130kts
23-Aug-20 18:39 35.781664 -114.954394 258 6692ft 114kts
23-Aug-20 18:40 35.758541 -114.980384 181 6648ft 122kts
23-Aug-20 18:41 35.756871 -114.959112 6 7137ft 88kts
23-Aug-20 18:42 35.781624 -114.957340 4 7651ft 98kts
23-Aug-20 18:43 35.812795 -114.956409 349 7737ft 124kts
23-Aug-20 18:44 35.845708 -114.974816 333 7611ft 132kts
23-Aug-20 18:45 35.878157 -114.994510 333 7636ft 127kts
23-Aug-20 18:46 35.910006 -115.014613 333 7587ft 131kts
23-Aug-20 18:47 35.941788 -115.034614 338 7584ft 132kts
23-Aug-20 18:48 35.974002 -115.054751 332 7634ft 126kts
23-Aug-20 18:49 36.006963 -115.065627 3 7545ft 121kts
23-Aug-20 18:50 36.038785 -115.065590 358 6280ft 105kts
23-Aug-20 18:51 36.066559 -115.066232 357 5536ft 99kts
23-Aug-20 18:52 36.094896 -115.069583 320 4836ft 106kts
23-Aug-20 18:53 36.112987 -115.097992 292 3555ft 104kts
23-Aug-20 18:54 36.120287 -115.130585 283 3140ft 91kts
23-Aug-20 18:55 36.107469 -115.151962 204 2376ft 82kts
23-Aug-20 18:56 36.093920 -115.160252 311 2105ft 8kts
23-Aug-20 18:57 36.094141 -115.160695 294 2106ft 0kts
23-Aug-20 18:58 36.094141 -115.160695 294 2106ft 0kts
23-Aug-20 18:59 36.094240 -115.162610 170 2112ft 1kts

Navigation Log

Ident Type
Flight plan parsing failed, navigation log unavailable